Time,TemperatureF,DewpointF,PressureIn,WindDirection,WindDirectionDegrees,WindSpeedMPH,WindSpeedGustMPH,Humidity,HourlyPrecipIn,Conditions,Clouds,dailyrainin,SolarRadiationWatts/m^2,SoftwareType,DateUTC
2013-01-09 00:01:00,31.0,30.0,-100.00,ESE,117,0.0,0.0,95,0.00,,,-99.99,0.000000,,2013-01-09 05:01:00,
2013-01-09 00:22:00,31.0,30.0,-100.00,ESE,117,0.0,0.0,95,0.00,,,-99.99,0.000000,,2013-01-09 05:22:00,
2013-01-09 00:33:00,31.0,30.0,-100.00,ESE,117,0.0,0.0,95,0.00,,,-99.99,0.000000,,2013-01-09 05:33:00,
2013-01-09 00:43:00,31.0,30.0,-100.00,ESE,117,0.0,0.0,95,0.00,,,-99.99,0.000000,,2013-01-09 05:43:00,
2013-01-09 00:53:00,31.0,30.0,-100.00,ESE,117,0.0,0.0,95,0.00,,,-99.99,0.000000,,2013-01-09 05:53:00,
2013-01-09 01:01:00,30.0,29.0,-100.00,East,94,0.0,0.0,95,0.00,,,-99.99,0.000000,,2013-01-09 06:01:00,
2013-01-09 01:22:00,30.0,29.0,-100.00,East,94,0.0,0.0,95,0.00,,,-99.99,0.000000,,2013-01-09 06:22:00,
2013-01-09 01:32:00,30.0,29.0,-100.00,East,94,0.0,0.0,95,0.00,,,-99.99,0.000000,,2013-01-09 06:32:00,
2013-01-09 01:42:00,30.0,29.0,-100.00,East,94,0.0,0.0,95,0.00,,,-99.99,0.000000,,2013-01-09 06:42:00,
2013-01-09 01:53:00,30.0,29.0,-100.00,East,94,0.0,0.0,95,0.00,,,-99.99,0.000000,,2013-01-09 06:53:00,
2013-01-09 02:01:00,28.0,27.0,-100.00,ENE,62,0.0,2.0,95,0.00,,,-99.99,0.000000,,2013-01-09 07:01:00,
2013-01-09 02:32:00,28.0,27.0,-100.00,ENE,62,0.0,2.0,95,0.00,,,-99.99,0.000000,,2013-01-09 07:32:00,
2013-01-09 02:42:00,28.0,27.0,-100.00,ENE,62,0.0,2.0,95,0.00,,,-99.99,0.000000,,2013-01-09 07:42:00,
2013-01-09 02:52:00,28.0,27.0,-100.00,ENE,62,0.0,2.0,95,0.00,,,-99.99,0.000000,,2013-01-09 07:52:00,
2013-01-09 03:01:00,26.0,25.0,-100.00,NE,47,0.0,1.0,95,0.00,,,-99.99,0.000000,,2013-01-09 08:01:00,
2013-01-09 03:22:00,26.0,25.0,-100.00,NE,47,0.0,1.0,95,0.00,,,-99.99,0.000000,,2013-01-09 08:22:00,
2013-01-09 03:32:00,26.0,25.0,-100.00,NE,47,0.0,1.0,95,0.00,,,-99.99,0.000000,,2013-01-09 08:32:00,
2013-01-09 03:43:00,26.0,25.0,-100.00,NE,47,0.0,1.0,95,0.00,,,-99.99,0.000000,,2013-01-09 08:43:00,
2013-01-09 03:53:00,26.0,25.0,-100.00,NE,47,0.0,1.0,95,0.00,,,-99.99,0.000000,,2013-01-09 08:53:00,
2013-01-09 04:01:00,24.0,23.0,-100.00,ENE,57,0.0,2.0,95,0.00,,,-99.99,0.000000,,2013-01-09 09:01:00,
2013-01-09 04:22:00,24.0,23.0,-100.00,ENE,57,0.0,2.0,95,0.00,,,-99.99,0.000000,,2013-01-09 09:22:00,
2013-01-09 04:32:00,24.0,23.0,-100.00,ENE,57,0.0,2.0,95,0.00,,,-99.99,0.000000,,2013-01-09 09:32:00,
2013-01-09 04:42:00,24.0,23.0,-100.00,ENE,57,0.0,2.0,95,0.00,,,-99.99,0.000000,,2013-01-09 09:42:00,
2013-01-09 04:53:00,24.0,23.0,-100.00,ENE,57,0.0,2.0,95,0.00,,,-99.99,0.000000,,2013-01-09 09:53:00,
2013-01-09 05:01:00,23.0,22.0,-100.00,ESE,116,0.0,1.0,95,0.00,,,-99.99,0.000000,,2013-01-09 10:01:00,
2013-01-09 05:32:00,23.0,22.0,-100.00,ESE,116,0.0,1.0,95,0.00,,,-99.99,0.000000,,2013-01-09 10:32:00,
2013-01-09 05:42:00,23.0,22.0,-100.00,ESE,116,0.0,1.0,95,0.00,,,-99.99,0.000000,,2013-01-09 10:42:00,
2013-01-09 05:52:00,23.0,22.0,-100.00,ESE,116,0.0,1.0,95,0.00,,,-99.99,0.000000,,2013-01-09 10:52:00,
2013-01-09 06:01:00,21.0,20.0,-100.00,NE,36,0.0,1.0,94,0.00,,,-99.99,0.000000,,2013-01-09 11:01:00,
2013-01-09 06:33:00,21.0,20.0,-100.00,NE,36,0.0,1.0,94,0.00,,,-99.99,0.000000,,2013-01-09 11:33:00,
2013-01-09 06:43:00,21.0,20.0,-100.00,NE,36,0.0,1.0,94,0.00,,,-99.99,0.000000,,2013-01-09 11:43:00,
2013-01-09 06:53:00,21.0,20.0,-100.00,NE,36,0.0,1.0,94,0.00,,,-99.99,0.000000,,2013-01-09 11:53:00,
2013-01-09 07:01:00,19.0,17.0,-100.00,NE,36,0.0,0.0,92,0.00,,,-99.99,0.000000,,2013-01-09 12:01:00,
2013-01-09 07:23:00,19.0,17.0,-100.00,NE,36,0.0,0.0,92,0.00,,,-99.99,0.000000,,2013-01-09 12:23:00,
2013-01-09 07:33:00,19.0,17.0,-100.00,NE,36,0.0,0.0,92,0.00,,,-99.99,0.000000,,2013-01-09 12:33:00,
2013-01-09 07:43:00,19.0,17.0,-100.00,NE,36,0.0,0.0,92,0.00,,,-99.99,0.000000,,2013-01-09 12:43:00,
2013-01-09 07:53:00,19.0,17.0,-100.00,NE,36,0.0,0.0,92,0.00,,,-99.99,0.000000,,2013-01-09 12:53:00,
2013-01-09 08:01:00,19.0,17.0,-100.00,East,79,0.0,0.0,92,0.00,,,-99.99,4.000000,,2013-01-09 13:01:00,
2013-01-09 08:23:00,19.0,17.0,-100.00,East,79,0.0,0.0,92,0.00,,,-99.99,4.000000,,2013-01-09 13:23:00,
2013-01-09 08:33:00,19.0,17.0,-100.00,East,79,0.0,0.0,92,0.00,,,-99.99,4.000000,,2013-01-09 13:33:00,
2013-01-09 08:43:00,19.0,17.0,-100.00,East,79,0.0,0.0,92,0.00,,,-99.99,4.000000,,2013-01-09 13:43:00,
2013-01-09 08:53:00,19.0,17.0,-100.00,East,79,0.0,0.0,92,0.00,,,-99.99,4.000000,,2013-01-09 13:53:00,
2013-01-09 09:01:00,24.0,22.0,-100.00,ESE,121,1.0,4.0,91,0.00,,,-99.99,49.000000,,2013-01-09 14:01:00,
2013-01-09 09:23:00,24.0,22.0,-100.00,ESE,121,1.0,4.0,91,0.00,,,-99.99,49.000000,,2013-01-09 14:23:00,
2013-01-09 09:33:00,24.0,22.0,-100.00,ESE,121,1.0,4.0,91,0.00,,,-99.99,49.000000,,2013-01-09 14:33:00,
2013-01-09 09:43:00,24.0,22.0,-100.00,ESE,121,1.0,4.0,91,0.00,,,-99.99,49.000000,,2013-01-09 14:43:00,
2013-01-09 09:53:00,24.0,22.0,-100.00,ESE,121,1.0,4.0,91,0.00,,,-99.99,49.000000,,2013-01-09 14:53:00,
2013-01-09 10:01:00,31.0,26.0,-100.00,East,97,1.0,3.0,82,0.00,,,-99.99,134.000000,,2013-01-09 15:01:00,
2013-01-09 10:23:00,31.0,26.0,-100.00,East,97,1.0,3.0,82,0.00,,,-99.99,134.000000,,2013-01-09 15:23:00,
2013-01-09 10:33:00,31.0,26.0,-100.00,East,97,1.0,3.0,82,0.00,,,-99.99,134.000000,,2013-01-09 15:33:00,
2013-01-09 10:43:00,31.0,26.0,-100.00,East,97,1.0,3.0,82,0.00,,,-99.99,134.000000,,2013-01-09 15:43:00,
2013-01-09 10:53:00,31.0,26.0,-100.00,East,97,1.0,3.0,82,0.00,,,-99.99,134.000000,,2013-01-09 15:53:00,
2013-01-09 11:01:00,37.0,26.0,-100.00,WSW,237,1.0,8.0,65,0.00,,,-99.99,112.000000,,2013-01-09 16:01:00,
2013-01-09 11:23:00,37.0,26.0,-100.00,WSW,237,1.0,8.0,65,0.00,,,-99.99,112.000000,,2013-01-09 16:23:00,
2013-01-09 11:34:00,37.0,26.0,-100.00,WSW,237,1.0,8.0,65,0.00,,,-99.99,112.000000,,2013-01-09 16:34:00,
2013-01-09 11:43:00,37.0,26.0,-100.00,WSW,237,1.0,8.0,65,0.00,,,-99.99,112.000000,,2013-01-09 16:43:00,
2013-01-09 11:53:00,37.0,26.0,-100.00,WSW,237,1.0,8.0,65,0.00,,,-99.99,112.000000,,2013-01-09 16:53:00,
2013-01-09 12:01:00,40.0,28.0,-100.00,SE,144,2.0,8.0,61,0.00,,,-99.99,137.000000,,2013-01-09 17:01:00,
2013-01-09 12:23:00,40.0,28.0,-100.00,SE,144,2.0,8.0,61,0.00,,,-99.99,137.000000,,2013-01-09 17:23:00,
2013-01-09 12:33:00,40.0,28.0,-100.00,SE,144,2.0,8.0,61,0.00,,,-99.99,137.000000,,2013-01-09 17:33:00,
2013-01-09 12:43:00,40.0,28.0,-100.00,SE,144,2.0,8.0,61,0.00,,,-99.99,137.000000,,2013-01-09 17:43:00,
2013-01-09 12:53:00,40.0,28.0,-100.00,SE,144,2.0,8.0,61,0.00,,,-99.99,137.000000,,2013-01-09 17:53:00,
2013-01-09 13:01:00,39.0,28.0,-100.00,SSE,157,2.0,7.0,64,0.05,,,-99.99,82.000000,,2013-01-09 18:01:00,
2013-01-09 13:24:00,39.0,28.0,-100.00,SSE,157,2.0,7.0,64,0.05,,,-99.99,82.000000,,2013-01-09 18:24:00,
2013-01-09 13:33:00,39.0,28.0,-100.00,SSE,157,2.0,7.0,64,0.05,,,-99.99,82.000000,,2013-01-09 18:33:00,
2013-01-09 13:43:00,39.0,28.0,-100.00,SSE,157,2.0,7.0,64,0.05,,,-99.99,82.000000,,2013-01-09 18:43:00,
2013-01-09 13:53:00,39.0,28.0,-100.00,SSE,157,2.0,7.0,64,0.05,,,-99.99,82.000000,,2013-01-09 18:53:00,
2013-01-09 15:01:00,42.0,31.0,-100.00,SW,236,2.0,10.0,66,-99.99,,,-99.99,34.000000,,2013-01-09 20:01:00,
2013-01-09 15:33:00,42.0,31.0,-100.00,SW,236,2.0,10.0,66,-99.99,,,-99.99,34.000000,,2013-01-09 20:33:00,
2013-01-09 15:43:00,42.0,31.0,-100.00,SW,236,2.0,10.0,66,-99.99,,,-99.99,34.000000,,2013-01-09 20:43:00,
2013-01-09 15:53:00,42.0,31.0,-100.00,SW,236,2.0,10.0,66,-99.99,,,-99.99,34.000000,,2013-01-09 20:53:00,
2013-01-09 16:01:00,42.0,31.0,-100.00,SW,229,3.0,19.0,64,0.19,,,0.42,17.000000,,2013-01-09 21:01:00,
2013-01-09 16:33:00,42.0,31.0,-100.00,SW,229,3.0,19.0,64,0.19,,,0.42,17.000000,,2013-01-09 21:33:00,
2013-01-09 16:43:00,42.0,31.0,-100.00,SW,229,3.0,19.0,64,0.19,,,0.42,17.000000,,2013-01-09 21:43:00,
2013-01-09 16:53:00,42.0,31.0,-100.00,SW,229,3.0,19.0,64,0.19,,,0.42,17.000000,,2013-01-09 21:53:00,
2013-01-09 17:01:00,41.0,31.0,-100.00,WSW,249,5.0,15.0,68,0.11,,,0.52,2.000000,,2013-01-09 22:01:00,
2013-01-09 17:23:00,41.0,31.0,-100.00,WSW,249,5.0,15.0,68,0.11,,,0.52,2.000000,,2013-01-09 22:23:00,
2013-01-09 17:33:00,41.0,31.0,-100.00,WSW,249,5.0,15.0,68,0.11,,,0.52,2.000000,,2013-01-09 22:33:00,
2013-01-09 17:43:00,41.0,31.0,-100.00,WSW,249,5.0,15.0,68,0.11,,,0.52,2.000000,,2013-01-09 22:43:00,
2013-01-09 17:53:00,41.0,31.0,-100.00,WSW,249,5.0,15.0,68,0.11,,,0.52,2.000000,,2013-01-09 22:53:00,
2013-01-09 18:01:00,41.0,32.0,-100.00,WSW,249,4.0,15.0,71,0.12,,,0.64,0.000000,,2013-01-09 23:01:00,
2013-01-09 18:33:00,41.0,32.0,-100.00,WSW,249,4.0,15.0,71,0.12,,,0.64,0.000000,,2013-01-09 23:33:00,
2013-01-09 18:43:00,41.0,32.0,-100.00,WSW,249,4.0,15.0,71,0.12,,,0.64,0.000000,,2013-01-09 23:43:00,
2013-01-09 18:53:00,41.0,32.0,-100.00,WSW,249,4.0,15.0,71,0.12,,,0.64,0.000000,,2013-01-09 23:53:00,
2013-01-09 19:01:00,40.0,32.0,-100.00,WSW,243,4.0,18.0,72,0.08,,,0.72,0.000000,,2013-01-10 00:01:00,
2013-01-09 19:33:00,40.0,32.0,-100.00,WSW,243,4.0,18.0,72,0.08,,,0.72,0.000000,,2013-01-10 00:33:00,
2013-01-09 19:43:00,40.0,32.0,-100.00,WSW,243,4.0,18.0,72,0.08,,,0.72,0.000000,,2013-01-10 00:43:00,
2013-01-09 19:53:00,40.0,32.0,-100.00,WSW,243,4.0,18.0,72,0.08,,,0.72,0.000000,,2013-01-10 00:53:00,
2013-01-09 20:01:00,39.0,30.0,-100.00,WSW,238,6.0,18.0,69,0.06,,,0.78,0.000000,,2013-01-10 01:01:00,
2013-01-09 20:33:00,39.0,30.0,-100.00,WSW,238,6.0,18.0,69,0.06,,,0.78,0.000000,,2013-01-10 01:33:00,
2013-01-09 20:43:00,39.0,30.0,-100.00,WSW,238,6.0,18.0,69,0.06,,,0.78,0.000000,,2013-01-10 01:43:00,
2013-01-09 20:53:00,39.0,30.0,-100.00,WSW,238,6.0,18.0,69,0.06,,,0.78,0.000000,,2013-01-10 01:53:00,
2013-01-09 21:01:00,39.0,29.0,-100.00,WSW,250,4.0,17.0,68,0.04,,,0.82,0.000000,,2013-01-10 02:01:00,
2013-01-09 21:22:00,39.0,29.0,-100.00,WSW,250,4.0,17.0,68,0.04,,,0.82,0.000000,,2013-01-10 02:22:00,
2013-01-09 21:33:00,39.0,29.0,-100.00,WSW,250,4.0,17.0,68,0.04,,,0.82,0.000000,,2013-01-10 02:33:00,
2013-01-09 21:43:00,39.0,29.0,-100.00,WSW,250,4.0,17.0,68,0.04,,,0.82,0.000000,,2013-01-10 02:43:00,
2013-01-09 21:53:00,39.0,29.0,-100.00,WSW,250,4.0,17.0,68,0.04,,,0.82,0.000000,,2013-01-10 02:53:00,
2013-01-09 22:01:00,39.0,30.0,-100.00,WSW,253,4.0,17.0,70,0.05,,,0.87,0.000000,,2013-01-10 03:01:00,
2013-01-09 22:22:00,39.0,30.0,-100.00,WSW,253,4.0,17.0,70,0.05,,,0.87,0.000000,,2013-01-10 03:22:00,
2013-01-09 22:33:00,39.0,30.0,-100.00,WSW,253,4.0,17.0,70,0.05,,,0.87,0.000000,,2013-01-10 03:33:00,
2013-01-09 22:43:00,39.0,30.0,-100.00,WSW,253,4.0,17.0,70,0.05,,,0.87,0.000000,,2013-01-10 03:43:00,
2013-01-09 22:53:00,39.0,30.0,-100.00,WSW,253,4.0,17.0,70,0.05,,,0.87,0.000000,,2013-01-10 03:53:00,
2013-01-09 23:01:00,35.0,33.0,-100.00,WSW,252,2.0,17.0,92,0.04,,,0.91,0.000000,,2013-01-10 04:01:00,
2013-01-09 23:32:00,35.0,33.0,-100.00,WSW,252,2.0,17.0,92,0.04,,,0.91,0.000000,,2013-01-10 04:32:00,
2013-01-09 23:43:00,35.0,33.0,-100.00,WSW,252,2.0,17.0,92,0.04,,,0.91,0.000000,,2013-01-10 04:43:00,
2013-01-09 23:53:00,35.0,33.0,-100.00,WSW,252,2.0,17.0,92,0.04,,,0.91,0.000000,,2013-01-10 04:53:00,